Time;durP1;ratioP1;P1;durP2;ratioP2;P2;SDS_P1;SDS_P2;PMS_P1;PMS_P2;Temp;Humidity;BMP_temperature;BMP_pressure;BME280_temperature;BME280_humidity;BME280_pressure;Samples;Min_cycle;Max_cycle;Signal;HPM_P1;HPM_P2
2022/10/20 00:01:49;;;;;;;38.63;16.67;;;;;;;;;;4993567;28;20058;-68
2022/10/20 00:04:14;;;;;;;40.80;17.02;;;;;;;;;;4993447;28;20084;-67
2022/10/20 00:06:39;;;;;;;42.20;17.45;;;;;;;;;;4993542;28;20030;-68
2022/10/20 00:09:05;;;;;;;36.03;16.13;;;;;;;;;;4993287;28;20136;-66
2022/10/20 00:11:31;;;;;;;37.13;14.75;;;;;;;;;;4993317;28;20479;-66
2022/10/20 00:13:58;;;;;;;47.20;18.45;;;;;;;;;;4992985;28;20050;-69
2022/10/20 00:16:26;;;;;;;39.75;17.00;;;;;;;;;;4993245;28;20372;-66
2022/10/20 00:18:52;;;;;;;41.13;18.13;;;;;;;;;;4993299;28;20030;-68
2022/10/20 00:21:20;;;;;;;33.42;16.60;;;;;;;;;;4995385;28;20518;-66
2022/10/20 00:23:46;;;;;;;36.50;17.38;;;;;;;;;;4996961;28;20108;-68
2022/10/20 00:26:21;;;;;;;38.83;17.77;;;;;;;;;;4997022;28;20086;-68
2022/10/20 00:28:48;;;;;;;31.50;15.48;;;;;;;;;;4996951;28;20026;-67
2022/10/20 00:31:14;;;;;;;32.55;14.77;;;;;;;;;;4997274;28;20429;-68
2022/10/20 00:33:40;;;;;;;29.50;13.93;;;;;;;;;;4996881;28;20464;-70
2022/10/20 00:36:07;;;;;;;29.60;13.60;;;;;;;;;;4996913;28;20041;-66
2022/10/20 00:38:33;;;;;;;26.88;13.57;;;;;;;;;;4996737;28;20026;-66
2022/10/20 00:41:01;;;;;;;25.67;13.30;;;;;;;;;;4996767;28;20518;-71
2022/10/20 00:43:47;;;;;;;23.73;14.05;;;;;;;;;;4996532;28;20038;-67
2022/10/20 00:46:16;;;;;;;24.52;13.52;;;;;;;;;;4996470;28;20062;-66
2022/10/20 00:48:45;;;;;;;23.67;12.90;;;;;;;;;;4996773;28;20419;-66
2022/10/20 00:51:15;;;;;;;23.02;12.75;;;;;;;;;;4996670;28;20034;-66
2022/10/20 00:53:42;;;;;;;24.42;13.45;;;;;;;;;;4996473;28;20080;-66
2022/10/20 00:56:08;;;;;;;26.50;14.70;;;;;;;;;;4996484;28;20072;-67
2022/10/20 00:58:34;;;;;;;24.10;13.73;;;;;;;;;;4996488;28;20054;-67
2022/10/20 01:01:00;;;;;;;24.88;14.48;;;;;;;;;;4996333;28;20030;-68
2022/10/20 01:03:38;;;;;;;30.50;16.73;;;;;;;;;;4996379;28;20030;-68
2022/10/20 01:06:04;;;;;;;26.98;14.52;;;;;;;;;;4996374;28;20030;-66
2022/10/20 01:08:29;;;;;;;25.58;14.57;;;;;;;;;;4996155;28;20030;-67
2022/10/20 01:11:01;;;;;;;33.10;15.95;;;;;;;;;;4996244;28;20030;-69
2022/10/20 01:13:34;;;;;;;31.30;16.40;;;;;;;;;;4995948;28;20051;-68
2022/10/20 01:16:05;;;;;;;26.95;15.93;;;;;;;;;;4996143;28;20480;-67
2022/10/20 01:18:54;;;;;;;31.25;15.27;;;;;;;;;;4996082;28;20026;-68
2022/10/20 01:21:48;;;;;;;27.08;14.65;;;;;;;;;;4989982;28;20058;-67
2022/10/20 01:24:25;;;;;;;25.75;14.95;;;;;;;;;;4995991;28;20488;-68
2022/10/20 01:27:13;;;;;;;32.25;15.77;;;;;;;;;;4995975;28;20042;-67
2022/10/20 01:29:44;;;;;;;30.13;15.55;;;;;;;;;;4995897;28;20109;-70
2022/10/20 01:32:33;;;;;;;30.83;15.93;;;;;;;;;;4995380;28;20058;-68
2022/10/20 01:35:17;;;;;;;26.02;14.57;;;;;;;;;;4995937;28;20026;-67
2022/10/20 01:38:01;;;;;;;30.92;14.90;;;;;;;;;;4995540;28;20503;-67
2022/10/20 01:40:37;;;;;;;28.58;14.80;;;;;;;;;;4995585;28;20031;-66
2022/10/20 01:43:07;;;;;;;27.88;14.73;;;;;;;;;;4995779;28;20026;-67
2022/10/20 01:45:35;;;;;;;28.40;14.73;;;;;;;;;;4995734;28;20507;-67
2022/10/20 01:48:04;;;;;;;28.38;15.05;;;;;;;;;;4995580;28;20093;-70
2022/10/20 01:50:31;;;;;;;25.55;14.85;;;;;;;;;;4995279;28;20062;-68
2022/10/20 01:52:57;;;;;;;26.92;15.27;;;;;;;;;;4995418;28;20109;-68
2022/10/20 01:55:22;;;;;;;29.80;15.98;;;;;;;;;;4995299;28;20027;-69
2022/10/20 01:58:09;;;;;;;33.15;15.75;;;;;;;;;;4995449;28;20033;-67
2022/10/20 02:00:37;;;;;;;29.65;16.02;;;;;;;;;;4995412;28;20030;-67
2022/10/20 02:03:27;;;;;;;27.40;15.07;;;;;;;;;;4995383;28;20049;-67
2022/10/20 02:06:16;;;;;;;27.67;15.35;;;;;;;;;;4995160;28;20480;-67
2022/10/20 02:08:48;;;;;;;30.90;14.90;;;;;;;;;;4954215;28;20047;-68
2022/10/20 02:11:25;;;;;;;26.40;15.07;;;;;;;;;;4954371;29;20545;-67
2022/10/20 02:13:51;;;;;;;27.88;14.85;;;;;;;;;;4954087;29;20497;-67
2022/10/20 02:16:27;;;;;;;32.60;15.18;;;;;;;;;;4938215;29;20049;-67
2022/10/20 02:18:54;;;;;;;26.83;14.48;;;;;;;;;;4954141;29;20027;-67
2022/10/20 02:21:19;;;;;;;25.77;14.77;;;;;;;;;;4953594;29;20054;-70
2022/10/20 02:23:48;;;;;;;25.17;13.65;;;;;;;;;;4954097;29;20031;-68
2022/10/20 02:26:19;;;;;;;30.15;14.50;;;;;;;;;;4954115;29;20047;-66
2022/10/20 02:28:55;;;;;;;25.10;13.88;;;;;;;;;;4954049;29;20035;-69
2022/10/20 02:31:21;;;;;;;23.80;13.38;;;;;;;;;;4954107;29;20031;-66
2022/10/20 02:33:47;;;;;;;27.20;15.13;;;;;;;;;;4953639;29;20035;-66
2022/10/20 02:36:18;;;;;;;26.73;13.93;;;;;;;;;;4953857;29;20042;-68
2022/10/20 02:38:43;;;;;;;28.20;14.32;;;;;;;;;;4953806;29;20562;-67
2022/10/20 02:41:09;;;;;;;28.58;14.90;;;;;;;;;;4953875;29;20537;-67
2022/10/20 02:43:35;;;;;;;29.42;14.48;;;;;;;;;;4952955;28;20031;-66
2022/10/20 02:46:00;;;;;;;25.80;13.60;;;;;;;;;;4979983;28;20104;-70
2022/10/20 02:48:26;;;;;;;28.50;13.10;;;;;;;;;;4994384;28;20030;-68
2022/10/20 02:50:51;;;;;;;24.20;13.10;;;;;;;;;;4994329;28;20033;-70
2022/10/20 02:53:17;;;;;;;25.80;12.90;;;;;;;;;;4994412;28;20472;-67
2022/10/20 02:55:42;;;;;;;21.52;11.50;;;;;;;;;;4994375;28;20030;-68
2022/10/20 02:58:08;;;;;;;24.33;12.20;;;;;;;;;;4994150;28;20034;-68
2022/10/20 03:00:34;;;;;;;16.88;9.65;;;;;;;;;;4994089;28;20030;-66
2022/10/20 03:02:59;;;;;;;16.48;9.32;;;;;;;;;;4993857;28;20121;-70
2022/10/20 03:05:25;;;;;;;17.50;9.90;;;;;;;;;;4994163;28;20454;-69
2022/10/20 03:07:52;;;;;;;17.63;10.18;;;;;;;;;;4994059;28;20033;-67
2022/10/20 03:10:18;;;;;;;14.93;9.02;;;;;;;;;;4994139;28;20122;-69
2022/10/20 03:12:43;;;;;;;17.65;9.95;;;;;;;;;;4993887;28;20074;-68
2022/10/20 03:15:09;;;;;;;17.15;10.05;;;;;;;;;;4994043;28;20022;-67
2022/10/20 03:17:35;;;;;;;18.88;7.72;;;;;;;;;;4994064;28;20030;-70
2022/10/20 03:20:01;;;;;;;20.27;8.90;;;;;;;;;;4992287;28;20041;-70
2022/10/20 03:22:27;;;;;;;20.45;10.05;;;;;;;;;;4993815;28;20387;-71
2022/10/20 03:24:52;;;;;;;19.15;10.15;;;;;;;;;;4993686;28;20035;-69
2022/10/20 03:27:18;;;;;;;21.58;9.90;;;;;;;;;;4993767;28;20038;-70
2022/10/20 03:29:43;;;;;;;21.90;10.82;;;;;;;;;;4993859;28;20472;-67
2022/10/20 03:32:08;;;;;;;18.48;12.02;;;;;;;;;;4993415;28;20030;-70
2022/10/20 03:34:34;;;;;;;23.02;12.27;;;;;;;;;;4993749;28;20026;-68
2022/10/20 03:36:59;;;;;;;20.90;13.05;;;;;;;;;;4993622;28;20526;-67
2022/10/20 03:39:25;;;;;;;24.73;13.52;;;;;;;;;;4993508;28;20038;-68
2022/10/20 03:41:50;;;;;;;23.48;12.38;;;;;;;;;;4993263;28;20022;-66
2022/10/20 03:44:16;;;;;;;18.55;11.45;;;;;;;;;;4993557;28;20022;-69
2022/10/20 03:46:41;;;;;;;22.00;11.43;;;;;;;;;;4993341;28;20076;-67
2022/10/20 03:49:07;;;;;;;20.58;11.05;;;;;;;;;;4993693;28;20034;-69
2022/10/20 03:51:32;;;;;;;20.95;11.80;;;;;;;;;;4993522;28;20515;-69
2022/10/20 03:53:57;;;;;;;16.55;10.02;;;;;;;;;;4993830;28;20026;-69
2022/10/20 03:56:23;;;;;;;19.27;10.88;;;;;;;;;;4997774;28;20031;-70
2022/10/20 03:58:48;;;;;;;20.73;10.25;;;;;;;;;;4997898;28;20042;-68
2022/10/20 04:01:16;;;;;;;18.77;10.40;;;;;;;;;;4997293;28;20027;-70
2022/10/20 04:03:43;;;;;;;17.67;11.25;;;;;;;;;;4997442;28;20544;-67
2022/10/20 04:06:10;;;;;;;19.42;10.73;;;;;;;;;;4997413;28;20109;-68
2022/10/20 04:08:35;;;;;;;25.83;16.17;;;;;;;;;;4997405;28;20491;-69
2022/10/20 04:11:01;;;;;;;26.27;15.10;;;;;;;;;;4997441;28;20054;-69
2022/10/20 04:13:26;;;;;;;22.95;12.23;;;;;;;;;;4997142;28;20566;-72
2022/10/20 04:15:52;;;;;;;25.40;12.57;;;;;;;;;;4997067;28;20023;-68
2022/10/20 04:18:17;;;;;;;19.08;12.02;;;;;;;;;;4997318;28;20057;-68
2022/10/20 04:20:43;;;;;;;24.88;12.45;;;;;;;;;;4996977;28;20092;-68
2022/10/20 04:23:09;;;;;;;28.05;14.88;;;;;;;;;;4997154;28;20026;-69
2022/10/20 04:25:34;;;;;;;21.48;13.23;;;;;;;;;;4997121;28;20057;-68
2022/10/20 04:28:00;;;;;;;22.90;12.55;;;;;;;;;;4996862;28;20038;-70
2022/10/20 04:30:25;;;;;;;27.50;13.18;;;;;;;;;;4996712;28;20022;-71
2022/10/20 04:32:51;;;;;;;21.05;12.40;;;;;;;;;;4996981;28;20116;-72
2022/10/20 04:35:16;;;;;;;33.58;16.65;;;;;;;;;;4996717;28;20427;-68
2022/10/20 04:37:42;;;;;;;49.28;21.45;;;;;;;;;;4996912;28;20034;-68
2022/10/20 04:40:08;;;;;;;43.75;19.58;;;;;;;;;;4996668;28;20070;-68
2022/10/20 04:42:33;;;;;;;33.60;17.73;;;;;;;;;;4996731;28;20157;-72
2022/10/20 04:44:59;;;;;;;35.42;17.42;;;;;;;;;;4996587;28;20105;-70
2022/10/20 04:47:24;;;;;;;34.60;17.17;;;;;;;;;;4996664;28;20379;-70
2022/10/20 04:49:50;;;;;;;29.75;15.98;;;;;;;;;;4996523;28;20155;-70
2022/10/20 04:52:16;;;;;;;23.60;12.82;;;;;;;;;;4996593;28;20026;-68
2022/10/20 04:54:41;;;;;;;27.63;14.25;;;;;;;;;;4996553;28;20101;-68
2022/10/20 04:57:08;;;;;;;25.45;14.82;;;;;;;;;;4996484;28;20102;-71
2022/10/20 04:59:34;;;;;;;27.80;13.13;;;;;;;;;;4995958;28;20383;-70
2022/10/20 05:01:59;;;;;;;30.15;14.60;;;;;;;;;;4996300;28;20114;-72
2022/10/20 05:04:25;;;;;;;21.98;11.77;;;;;;;;;;4996420;28;20070;-71
2022/10/20 05:06:50;;;;;;;26.40;13.52;;;;;;;;;;4995577;28;20550;-68
2022/10/20 05:09:16;;;;;;;17.15;10.48;;;;;;;;;;4996266;28;20035;-69
2022/10/20 05:11:41;;;;;;;18.45;10.60;;;;;;;;;;4996228;28;20372;-67
2022/10/20 05:14:07;;;;;;;20.10;11.40;;;;;;;;;;4995620;28;20476;-72
2022/10/20 05:16:33;;;;;;;16.45;9.95;;;;;;;;;;4995854;28;20084;-68
2022/10/20 05:18:59;;;;;;;20.05;11.30;;;;;;;;;;4996080;28;20019;-70
2022/10/20 05:21:28;;;;;;;20.67;10.80;;;;;;;;;;4995632;28;20551;-68
2022/10/20 05:24:01;;;;;;;20.52;11.23;;;;;;;;;;4995960;28;20058;-69
2022/10/20 05:26:28;;;;;;;25.65;13.40;;;;;;;;;;4995773;28;20080;-69
2022/10/20 05:28:54;;;;;;;26.60;14.38;;;;;;;;;;4995429;28;20106;-70
2022/10/20 05:31:21;;;;;;;26.48;14.80;;;;;;;;;;4995605;28;20065;-69
2022/10/20 05:33:52;;;;;;;28.50;15.73;;;;;;;;;;4995780;28;20061;-72
2022/10/20 05:36:20;;;;;;;33.13;15.63;;;;;;;;;;4995704;28;20035;-67
2022/10/20 05:38:45;;;;;;;30.45;16.40;;;;;;;;;;4995602;28;20037;-72
2022/10/20 05:41:12;;;;;;;31.50;15.52;;;;;;;;;;4995329;28;20030;-72
2022/10/20 05:43:38;;;;;;;31.80;16.83;;;;;;;;;;4995435;28;20081;-69
2022/10/20 05:46:04;;;;;;;34.25;14.90;;;;;;;;;;4995702;28;20030;-68
2022/10/20 05:48:30;;;;;;;34.55;16.17;;;;;;;;;;4995594;28;20065;-71
2022/10/20 05:50:55;;;;;;;28.42;15.23;;;;;;;;;;4995209;28;20369;-70
2022/10/20 05:53:21;;;;;;;33.20;16.27;;;;;;;;;;4995170;28;20038;-71
2022/10/20 05:55:46;;;;;;;34.78;16.40;;;;;;;;;;4995335;28;20030;-72
2022/10/20 05:58:13;;;;;;;32.08;14.95;;;;;;;;;;4995103;28;20158;-71
2022/10/20 06:00:50;;;;;;;27.13;12.85;;;;;;;;;;4995185;28;20101;-66
2022/10/20 06:03:16;;;;;;;34.20;12.60;;;;;;;;;;4995191;28;20102;-68
2022/10/20 06:05:41;;;;;;;21.58;12.38;;;;;;;;;;4995343;28;20069;-67
2022/10/20 06:08:07;;;;;;;23.67;12.57;;;;;;;;;;4995256;28;20039;-67
2022/10/20 06:10:32;;;;;;;26.73;12.52;;;;;;;;;;4995158;28;20038;-68
2022/10/20 06:12:58;;;;;;;20.85;12.15;;;;;;;;;;4994733;28;20038;-70
2022/10/20 06:15:23;;;;;;;29.27;12.48;;;;;;;;;;4995063;28;20034;-69
2022/10/20 06:17:49;;;;;;;85.18;35.97;;;;;;;;;;4994800;28;20476;-71
2022/10/20 06:20:14;;;;;;;53.50;24.88;;;;;;;;;;4994542;28;20034;-71
2022/10/20 06:22:39;;;;;;;85.05;39.22;;;;;;;;;;4994646;28;20030;-69
2022/10/20 06:25:06;;;;;;;71.10;34.92;;;;;;;;;;4994905;28;20014;-67
2022/10/20 06:27:31;;;;;;;67.40;31.55;;;;;;;;;;4994517;28;20077;-70
2022/10/20 06:29:57;;;;;;;34.20;17.63;;;;;;;;;;4994771;28;20462;-70
2022/10/20 06:32:22;;;;;;;35.85;18.00;;;;;;;;;;4994376;28;20034;-70
2022/10/20 06:34:48;;;;;;;38.15;17.50;;;;;;;;;;4994650;28;20031;-71
2022/10/20 06:37:13;;;;;;;34.38;17.83;;;;;;;;;;4994583;28;20018;-67
2022/10/20 06:39:38;;;;;;;34.00;16.65;;;;;;;;;;4994450;28;20050;-72
2022/10/20 06:42:05;;;;;;;45.42;17.83;;;;;;;;;;4994238;28;20041;-72
2022/10/20 06:44:31;;;;;;;40.33;15.80;;;;;;;;;;4994425;28;20026;-70
2022/10/20 06:46:56;;;;;;;31.38;13.98;;;;;;;;;;4994333;28;20037;-69
2022/10/20 06:49:22;;;;;;;29.60;13.40;;;;;;;;;;4994429;28;20072;-69
2022/10/20 06:51:48;;;;;;;35.03;12.60;;;;;;;;;;4994319;28;20038;-71
2022/10/20 06:54:14;;;;;;;27.67;12.95;;;;;;;;;;4994241;28;20038;-69
2022/10/20 06:56:39;;;;;;;20.63;10.95;;;;;;;;;;4994140;28;20423;-71
2022/10/20 06:59:05;;;;;;;24.50;11.35;;;;;;;;;;4994303;28;20030;-68
2022/10/20 07:01:35;;;;;;;29.50;12.75;;;;;;;;;;4994175;28;20129;-69
2022/10/20 07:04:02;;;;;;;;;;;;;;;;;;4994551;28;20022;-65
2022/10/20 07:06:29;;;;;;;34.25;15.30;;;;;;;;;;4994037;28;19914;-67
2022/10/20 07:08:55;;;;;;;16.83;9.63;;;;;;;;;;4994004;28;20085;-70
2022/10/20 07:11:23;;;;;;;18.65;8.90;;;;;;;;;;4993746;28;20030;-65
2022/10/20 07:13:49;;;;;;;16.70;8.43;;;;;;;;;;4993879;28;20049;-67
2022/10/20 07:16:18;;;;;;;13.45;7.85;;;;;;;;;;4993996;28;20030;-70
2022/10/20 07:18:44;;;;;;;13.95;7.55;;;;;;;;;;4994017;28;20473;-67
2022/10/20 07:21:15;;;;;;;16.33;7.45;;;;;;;;;;4993525;28;20038;-67
2022/10/20 07:23:40;;;;;;;12.48;7.05;;;;;;;;;;4993585;28;20033;-69
2022/10/20 07:26:18;;;;;;;14.60;7.10;;;;;;;;;;4993829;28;20034;-65
2022/10/20 07:28:46;;;;;;;12.52;6.90;;;;;;;;;;4993441;28;20057;-68
2022/10/20 07:31:18;;;;;;;13.60;7.18;;;;;;;;;;4993689;28;20034;-69
2022/10/20 07:33:43;;;;;;;15.55;7.28;;;;;;;;;;4993781;28;20034;-69
2022/10/20 07:36:15;;;;;;;16.25;7.15;;;;;;;;;;4993775;28;20431;-67
2022/10/20 07:38:41;;;;;;;11.50;6.68;;;;;;;;;;4993246;28;20040;-69
2022/10/20 07:41:07;;;;;;;12.32;6.10;;;;;;;;;;4993530;28;20109;-71
2022/10/20 07:43:34;;;;;;;12.60;5.40;;;;;;;;;;4993467;28;20026;-67
2022/10/20 07:45:59;;;;;;;11.50;5.55;;;;;;;;;;4993531;28;20121;-68
2022/10/20 07:48:25;;;;;;;9.50;5.40;;;;;;;;;;4993441;28;20050;-71
2022/10/20 07:50:50;;;;;;;11.10;6.40;;;;;;;;;;4993469;28;20029;-71
2022/10/20 07:53:16;;;;;;;9.50;5.43;;;;;;;;;;4993258;28;20022;-72
2022/10/20 07:55:41;;;;;;;8.63;4.68;;;;;;;;;;4993498;28;20030;-72
2022/10/20 07:58:07;;;;;;;7.55;5.18;;;;;;;;;;4993464;28;20499;-66
2022/10/20 08:00:32;;;;;;;11.85;5.75;;;;;;;;;;4993397;28;20026;-67
2022/10/20 08:02:57;;;;;;;7.43;4.07;;;;;;;;;;4993434;28;20468;-69
2022/10/20 08:05:23;;;;;;;8.30;4.43;;;;;;;;;;4991965;28;20054;-68
2022/10/20 08:07:48;;;;;;;11.10;4.50;;;;;;;;;;4993182;28;20030;-70
2022/10/20 08:10:14;;;;;;;6.63;4.32;;;;;;;;;;4993213;28;20038;-66
2022/10/20 08:12:39;;;;;;;5.45;4.10;;;;;;;;;;4993108;28;20100;-66
2022/10/20 08:15:05;;;;;;;9.93;4.60;;;;;;;;;;4993587;28;20026;-67
2022/10/20 08:17:31;;;;;;;7.22;3.90;;;;;;;;;;4993321;28;20083;-69
2022/10/20 08:19:56;;;;;;;9.43;3.60;;;;;;;;;;4992973;28;20026;-66
2022/10/20 08:22:22;;;;;;;6.03;3.60;;;;;;;;;;4992977;28;20026;-70
2022/10/20 08:24:47;;;;;;;8.63;3.28;;;;;;;;;;4993289;28;20069;-68
2022/10/20 08:27:13;;;;;;;6.18;3.47;;;;;;;;;;4992999;28;20062;-70
2022/10/20 08:29:38;;;;;;;5.97;3.20;;;;;;;;;;4993337;28;20026;-66
2022/10/20 08:32:04;;;;;;;4.28;2.75;;;;;;;;;;4993263;28;20034;-66
2022/10/20 08:34:30;;;;;;;6.68;3.13;;;;;;;;;;4993309;28;20026;-68
2022/10/20 08:36:56;;;;;;;6.85;3.20;;;;;;;;;;4992960;28;20031;-65
2022/10/20 08:39:21;;;;;;;4.03;3.03;;;;;;;;;;4993093;28;20468;-66
2022/10/20 08:41:49;;;;;;;5.40;3.00;;;;;;;;;;4994622;28;20046;-68
2022/10/20 08:44:22;;;;;;;5.40;3.03;;;;;;;;;;4996759;28;20388;-67
2022/10/20 08:46:48;;;;;;;6.47;3.22;;;;;;;;;;4996521;28;20066;-66
2022/10/20 08:49:23;;;;;;;6.95;2.90;;;;;;;;;;4996860;28;20061;-69
2022/10/20 08:51:49;;;;;;;4.60;2.97;;;;;;;;;;4996414;28;20041;-66
2022/10/20 08:54:15;;;;;;;5.63;2.75;;;;;;;;;;4996613;28;20034;-68
2022/10/20 08:56:41;;;;;;;12.25;3.00;;;;;;;;;;4996562;28;20037;-70
2022/10/20 08:59:25;;;;;;;4.80;2.72;;;;;;;;;;4996610;28;20030;-68
2022/10/20 09:01:52;;;;;;;4.03;2.22;;;;;;;;;;4996434;28;20030;-67
2022/10/20 09:04:23;;;;;;;4.75;2.55;;;;;;;;;;4996495;28;20479;-67
2022/10/20 09:06:59;;;;;;;4.55;2.30;;;;;;;;;;4995909;28;20066;-65
2022/10/20 09:09:27;;;;;;;3.85;2.53;;;;;;;;;;4996318;28;20135;-70
2022/10/20 09:11:58;;;;;;;4.35;2.47;;;;;;;;;;4996272;28;20061;-68
2022/10/20 09:14:24;;;;;;;4.25;2.03;;;;;;;;;;4996179;28;20049;-66
2022/10/20 09:16:49;;;;;;;4.15;2.22;;;;;;;;;;4996138;28;20026;-66
2022/10/20 09:19:19;;;;;;;3.75;1.75;;;;;;;;;;4996167;28;20097;-66
2022/10/20 09:21:53;;;;;;;3.53;2.00;;;;;;;;;;4995721;28;20045;-66
2022/10/20 09:24:26;;;;;;;4.35;2.20;;;;;;;;;;4996119;28;20363;-68
2022/10/20 09:26:52;;;;;;;3.90;2.10;;;;;;;;;;4996161;28;20030;-65
2022/10/20 09:29:20;;;;;;;3.58;2.17;;;;;;;;;;4996002;28;20031;-68
2022/10/20 09:31:52;;;;;;;4.53;2.30;;;;;;;;;;4995864;28;20042;-65
2022/10/20 09:34:36;;;;;;;3.28;1.80;;;;;;;;;;4995708;28;20480;-65
2022/10/20 09:37:07;;;;;;;5.28;2.08;;;;;;;;;;4995966;28;20472;-68
2022/10/20 09:39:45;;;;;;;3.42;1.98;;;;;;;;;;4995767;28;20080;-71
2022/10/20 09:42:18;;;;;;;5.65;2.47;;;;;;;;;;4995648;28;20030;-67
2022/10/20 09:44:57;;;;;;;5.80;1.90;;;;;;;;;;4995662;28;20024;-68
2022/10/20 09:47:25;;;;;;;4.60;1.83;;;;;;;;;;4995722;28;20111;-68
2022/10/20 09:49:58;;;;;;;3.70;1.92;;;;;;;;;;4995309;28;20033;-67
2022/10/20 09:52:29;;;;;;;4.90;1.90;;;;;;;;;;4995190;28;20510;-66
2022/10/20 09:55:34;;;;;;;5.90;1.85;;;;;;;;;;4995465;28;20096;-66
2022/10/20 09:58:02;;;;;;;4.28;1.55;;;;;;;;;;4973431;28;20484;-66
2022/10/20 10:00:55;;;;;;;3.50;1.80;;;;;;;;;;4973665;28;20051;-66
2022/10/20 10:03:22;;;;;;;3.83;1.92;;;;;;;;;;4957404;28;20523;-67
2022/10/20 10:05:59;;;;;;;4.22;1.85;;;;;;;;;;4973748;28;20461;-66
2022/10/20 10:08:39;;;;;;;2.80;1.80;;;;;;;;;;4973817;28;20536;-67
2022/10/20 10:11:14;;;;;;;3.40;1.65;;;;;;;;;;4973606;28;20054;-65
2022/10/20 10:13:45;;;;;;;3.92;1.70;;;;;;;;;;4973385;28;20576;-68
2022/10/20 10:16:14;;;;;;;5.03;1.88;;;;;;;;;;4957311;28;20038;-70
2022/10/20 10:18:42;;;;;;;2.60;1.75;;;;;;;;;;4973087;28;20164;-66
2022/10/20 10:21:14;;;;;;;3.17;1.75;;;;;;;;;;4973087;28;20113;-71
2022/10/20 10:24:23;;;;;;;4.47;1.80;;;;;;;;;;4973542;28;20097;-68
2022/10/20 10:26:53;;;;;;;5.00;1.85;;;;;;;;;;4968784;28;20469;-68
2022/10/20 10:29:35;;;;;;;3.03;1.73;;;;;;;;;;4973176;28;20027;-68
2022/10/20 10:32:17;;;;;;;2.95;1.65;;;;;;;;;;4973136;28;20085;-70
2022/10/20 10:35:08;;;;;;;5.80;2.10;;;;;;;;;;4993984;28;20124;-71
2022/10/20 10:37:35;;;;;;;2.88;1.88;;;;;;;;;;4994677;28;20026;-69
2022/10/20 10:40:12;;;;;;;2.80;1.63;;;;;;;;;;4994605;28;20035;-70
2022/10/20 10:43:04;;;;;;;2.95;1.88;;;;;;;;;;4994566;28;20478;-65
2022/10/20 10:45:55;;;;;;;5.15;1.92;;;;;;;;;;4994482;28;20105;-66
2022/10/20 10:48:54;;;;;;;2.88;1.40;;;;;;;;;;4994200;28;20036;-67
2022/10/20 10:51:44;;;;;;;4.35;2.15;;;;;;;;;;4994156;28;20030;-70
2022/10/20 10:54:25;;;;;;;2.97;1.70;;;;;;;;;;4994279;28;20038;-71
2022/10/20 10:57:00;;;;;;;3.83;1.95;;;;;;;;;;4994334;28;20037;-67
2022/10/20 10:59:33;;;;;;;2.22;1.33;;;;;;;;;;4994341;28;20113;-69
2022/10/20 11:02:02;;;;;;;4.05;1.60;;;;;;;;;;4993985;28;20026;-67
2022/10/20 11:05:08;;;;;;;3.28;1.80;;;;;;;;;;4993482;28;20030;-70
2022/10/20 11:07:45;;;;;;;2.95;1.70;;;;;;;;;;4993935;28;20030;-71
2022/10/20 11:10:14;;;;;;;2.58;1.58;;;;;;;;;;4994085;28;20492;-67
2022/10/20 11:12:51;;;;;;;3.35;1.80;;;;;;;;;;4993767;28;20121;-67
2022/10/20 11:15:38;;;;;;;2.17;1.40;;;;;;;;;;4994012;28;20030;-65
2022/10/20 11:18:41;;;;;;;4.40;1.45;;;;;;;;;;4993995;28;20101;-64
2022/10/20 11:21:12;;;;;;;5.80;1.95;;;;;;;;;;4993735;28;20392;-71
2022/10/20 11:24:31;;;;;;;2.47;1.45;;;;;;;;;;4993747;28;20034;-70
2022/10/20 11:27:08;;;;;;;2.97;1.48;;;;;;;;;;4972331;28;20026;-67
2022/10/20 11:29:44;;;;;;;3.08;1.58;;;;;;;;;;4972009;28;20046;-65
2022/10/20 11:32:13;;;;;;;6.72;1.50;;;;;;;;;;4955715;28;20656;-65
2022/10/20 11:34:38;;;;;;;3.15;1.80;;;;;;;;;;4972137;28;20035;-71
2022/10/20 11:37:12;;;;;;;2.17;1.40;;;;;;;;;;4972211;28;20031;-66
2022/10/20 11:40:10;;;;;;;5.15;2.20;;;;;;;;;;4972057;28;20037;-68
2022/10/20 11:42:56;;;;;;;8.07;2.33;;;;;;;;;;4972064;28;20030;-68
2022/10/20 11:45:31;;;;;;;8.32;3.20;;;;;;;;;;4971798;28;20612;-65
2022/10/20 11:48:11;;;;;;;5.45;2.03;;;;;;;;;;4972071;28;20030;-65
2022/10/20 11:50:37;;;;;;;3.20;1.50;;;;;;;;;;4971922;28;20039;-66
2022/10/20 11:53:25;;;;;;;3.00;1.40;;;;;;;;;;4971919;28;20304;-71
2022/10/20 11:56:28;;;;;;;3.80;1.63;;;;;;;;;;4933470;29;20125;-71
2022/10/20 11:58:56;;;;;;;3.72;1.90;;;;;;;;;;4925803;29;20039;-71
2022/10/20 12:02:09;;;;;;;2.65;1.10;;;;;;;;;;4932997;29;20223;-68
2022/10/20 12:04:57;;;;;;;3.83;1.55;;;;;;;;;;4895699;29;20037;-70
2022/10/20 12:07:23;;;;;;;2.33;1.10;;;;;;;;;;4895528;29;20515;-70
2022/10/20 12:10:07;;;;;;;2.95;1.05;;;;;;;;;;4895737;29;20032;-72
2022/10/20 12:12:46;;;;;;;3.25;1.52;;;;;;;;;;4895357;29;20041;-71
2022/10/20 12:15:23;;;;;;;4.60;1.20;;;;;;;;;;4895932;29;20104;-72
2022/10/20 12:17:51;;;;;;;3.53;1.65;;;;;;;;;;4899359;29;20052;-71
2022/10/20 12:20:19;;;;;;;2.50;1.27;;;;;;;;;;4898770;29;20079;-71
2022/10/20 12:22:46;;;;;;;3.50;1.30;;;;;;;;;;4899246;29;20032;-70
2022/10/20 12:25:17;;;;;;;3.80;1.92;;;;;;;;;;4899216;29;20444;-70
2022/10/20 12:27:43;;;;;;;3.65;1.60;;;;;;;;;;4899342;29;20044;-73
2022/10/20 12:30:17;;;;;;;3.10;1.85;;;;;;;;;;4898901;29;20079;-69
2022/10/20 12:33:08;;;;;;;3.83;1.45;;;;;;;;;;4915864;29;20042;-74
2022/10/20 12:35:51;;;;;;;;;;;;;;;;;;4937314;29;20042;-73
2022/10/20 12:38:17;;;;;;;6.53;2.05;;;;;;;;;;4936568;29;20002;-66
2022/10/20 12:40:48;;;;;;;4.45;1.15;;;;;;;;;;4967862;28;20050;-68
2022/10/20 12:43:54;;;;;;;2.83;1.50;;;;;;;;;;4996542;28;20388;-70
2022/10/20 12:46:30;;;;;;;5.38;1.92;;;;;;;;;;4995399;28;20046;-67
2022/10/20 12:49:02;;;;;;;2.55;1.20;;;;;;;;;;4996480;28;20027;-68
2022/10/20 12:51:55;;;;;;;2.05;1.10;;;;;;;;;;4996070;28;20045;-72
2022/10/20 12:54:23;;;;;;;1.95;1.08;;;;;;;;;;4995496;28;20562;-72
2022/10/20 12:56:49;;;;;;;3.03;1.60;;;;;;;;;;4996381;28;20117;-66
2022/10/20 12:59:29;;;;;;;4.60;1.80;;;;;;;;;;4996181;28;20080;-69
2022/10/20 13:02:07;;;;;;;4.82;1.77;;;;;;;;;;4996422;28;20022;-67
2022/10/20 13:04:59;;;;;;;3.72;1.88;;;;;;;;;;4996425;28;20392;-70
2022/10/20 13:07:46;;;;;;;3.38;1.60;;;;;;;;;;4996354;28;20465;-67
2022/10/20 13:10:30;;;;;;;3.50;1.80;;;;;;;;;;4996087;28;20039;-71
2022/10/20 13:13:01;;;;;;;4.10;1.33;;;;;;;;;;4995746;28;20049;-64
2022/10/20 13:15:29;;;;;;;4.32;1.80;;;;;;;;;;4996193;28;20102;-69
2022/10/20 13:17:59;;;;;;;2.17;1.38;;;;;;;;;;4996117;28;20015;-68
2022/10/20 13:20:41;;;;;;;2.80;1.27;;;;;;;;;;4995806;28;20554;-68
2022/10/20 13:23:12;;;;;;;3.70;1.73;;;;;;;;;;4996143;28;20436;-70
2022/10/20 13:25:43;;;;;;;3.42;1.80;;;;;;;;;;4995872;28;20089;-67
2022/10/20 13:28:11;;;;;;;2.97;1.35;;;;;;;;;;4994955;28;20022;-67
2022/10/20 13:31:06;;;;;;;5.72;1.98;;;;;;;;;;4995727;28;20140;-66
2022/10/20 13:33:34;;;;;;;2.22;1.50;;;;;;;;;;4994707;28;20072;-73
2022/10/20 13:36:41;;;;;;;5.47;2.20;;;;;;;;;;4995742;28;20479;-67
2022/10/20 13:39:19;;;;;;;4.30;2.15;;;;;;;;;;4995421;28;20137;-67
2022/10/20 13:42:15;;;;;;;4.35;1.40;;;;;;;;;;4995464;28;20030;-66
2022/10/20 13:45:03;;;;;;;7.32;4.30;;;;;;;;;;4995563;28;20510;-66
2022/10/20 13:47:50;;;;;;;4.45;2.38;;;;;;;;;;4995297;28;20034;-66
2022/10/20 13:50:40;;;;;;;6.97;2.90;;;;;;;;;;4995497;28;20029;-68
2022/10/20 13:53:22;;;;;;;8.47;2.90;;;;;;;;;;4995551;28;20022;-69
2022/10/20 13:56:16;;;;;;;4.05;2.25;;;;;;;;;;4995169;28;20076;-68
2022/10/20 13:58:56;;;;;;;5.35;2.42;;;;;;;;;;4995367;28;20483;-68
2022/10/20 14:01:23;;;;;;;5.93;2.40;;;;;;;;;;4995050;28;20042;-66
2022/10/20 14:03:49;;;;;;;4.15;2.15;;;;;;;;;;4995272;28;20038;-69
2022/10/20 14:06:45;;;;;;;4.82;2.60;;;;;;;;;;4995289;28;20037;-68
2022/10/20 14:09:19;;;;;;;4.97;2.60;;;;;;;;;;4990689;28;20035;-66
2022/10/20 14:11:52;;;;;;;6.30;2.33;;;;;;;;;;4994855;28;20376;-65
2022/10/20 14:14:22;;;;;;;6.72;3.25;;;;;;;;;;4994947;28;20050;-70
2022/10/20 14:17:06;;;;;;;;;;;;;;;;;;4995461;28;20077;-67
2022/10/20 14:19:33;;;;;;;5.22;2.47;;;;;;;;;;4995012;28;20000;-74
2022/10/20 14:22:11;;;;;;;5.00;2.55;;;;;;;;;;4994722;28;20035;-67
2022/10/20 14:24:42;;;;;;;5.53;2.72;;;;;;;;;;4994883;28;20034;-66
2022/10/20 14:27:25;;;;;;;4.53;2.40;;;;;;;;;;4994996;28;20077;-66
2022/10/20 14:29:51;;;;;;;7.75;2.70;;;;;;;;;;4994896;28;20049;-67
2022/10/20 14:32:20;;;;;;;6.93;3.10;;;;;;;;;;4994753;28;20113;-67
2022/10/20 14:35:02;;;;;;;5.90;2.92;;;;;;;;;;4994632;28;20030;-68
2022/10/20 14:37:38;;;;;;;7.20;2.70;;;;;;;;;;4994164;28;20026;-68
2022/10/20 14:40:07;;;;;;;6.45;2.70;;;;;;;;;;4993319;28;20057;-66
2022/10/20 14:42:33;;;;;;;5.18;2.53;;;;;;;;;;4994367;28;20437;-68
2022/10/20 14:45:01;;;;;;;4.30;2.08;;;;;;;;;;4994527;28;20030;-66
2022/10/20 14:47:33;;;;;;;6.22;2.80;;;;;;;;;;4994459;28;20034;-68
2022/10/20 14:49:59;;;;;;;5.22;2.38;;;;;;;;;;4994452;28;20387;-68
2022/10/20 14:52:29;;;;;;;6.38;2.72;;;;;;;;;;4994348;28;20038;-67
2022/10/20 14:54:54;;;;;;;;;;;;;;;;;;4994472;28;20060;-67
2022/10/20 14:57:20;;;;;;;6.60;2.70;;;;;;;;;;4994241;28;19957;-70